Time;durP1;ratioP1;P1;durP2;ratioP2;P2;SDS_P1;SDS_P2;PMS_P1;PMS_P2;Temp;Humidity;BMP_temperature;BMP_pressure;BME280_temperature;BME280_humidity;BME280_pressure;Samples;Min_cycle;Max_cycle;Signal;HPM_P1;HPM_P2
2023/05/08 00:01:15;;;;;;;4.70;4.23;;;;;;;17.02;52.62;94793.16;5112042;28;20711;-42
2023/05/08 00:03:43;;;;;;;5.70;4.17;;;;;;;16.99;52.60;94789.13;5132978;27;20200;-43
2023/05/08 00:06:10;;;;;;;5.30;4.60;;;;;;;16.98;52.68;94791.88;5140139;27;20196;-45
2023/05/08 00:08:39;;;;;;;4.73;4.33;;;;;;;16.94;52.73;94799.19;5136487;27;20188;-45
2023/05/08 00:11:05;;;;;;;5.53;4.53;;;;;;;16.93;52.81;94800.16;5132586;27;20336;-44
2023/05/08 00:13:32;;;;;;;4.53;4.10;;;;;;;16.92;52.95;94802.91;5132332;27;20188;-47
2023/05/08 00:15:59;;;;;;;6.70;4.50;;;;;;;16.89;53.00;94792.94;5132257;27;20607;-44
2023/05/08 00:18:26;;;;;;;7.30;4.17;;;;;;;16.82;53.00;94786.84;5132194;27;20184;-44
2023/05/08 00:20:53;;;;;;;6.10;4.50;;;;;;;16.84;53.18;94803.78;5132174;27;20223;-45
2023/05/08 00:23:21;;;;;;;6.23;4.53;;;;;;;16.83;53.25;94803.94;5131822;27;20279;-45
2023/05/08 00:25:49;;;;;;;4.80;4.33;;;;;;;16.80;53.38;94810.28;5133062;27;20231;-45
2023/05/08 00:28:15;;;;;;;4.77;4.37;;;;;;;16.78;53.40;94809.63;5131924;27;20188;-45
2023/05/08 00:30:42;;;;;;;4.70;4.30;;;;;;;16.76;53.45;94812.41;5132244;27;20668;-45
2023/05/08 00:33:10;;;;;;;4.60;4.10;;;;;;;16.74;53.46;94806.59;5132302;27;20188;-45
2023/05/08 00:35:37;;;;;;;5.37;4.73;;;;;;;16.73;53.73;94807.56;5131739;27;20201;-44
2023/05/08 00:38:03;;;;;;;5.67;4.77;;;;;;;16.70;53.68;94801.91;5132001;27;20213;-47
2023/05/08 00:40:30;;;;;;;6.30;4.33;;;;;;;16.67;53.54;94808.25;5131660;27;20204;-46
2023/05/08 00:42:58;;;;;;;5.07;4.57;;;;;;;16.67;53.79;94815.19;5132033;27;20260;-46
2023/05/08 00:45:30;;;;;;;6.50;4.50;;;;;;;16.48;53.73;94775.91;5131245;27;20200;-45
2023/05/08 00:47:56;;;;;;;5.13;4.40;;;;;;;16.63;53.96;94803.59;5131915;27;20195;-44
2023/05/08 00:50:23;;;;;;;4.43;4.10;;;;;;;16.62;53.88;94801.97;5131617;27;20200;-45
2023/05/08 00:52:50;;;;;;;8.13;4.73;;;;;;;16.60;54.00;94807.31;5131579;27;20196;-45
2023/05/08 00:55:17;;;;;;;5.57;4.37;;;;;;;16.51;54.09;94806.56;5131637;27;20188;-46
2023/05/08 00:57:47;;;;;;;6.17;4.27;;;;;;;16.57;54.15;94820.56;5131298;27;20199;-47
2023/05/08 01:00:17;;;;;;;4.47;4.10;;;;;;;16.55;54.13;94820.72;5131501;27;20181;-43
2023/05/08 01:02:44;;;;;;;6.17;4.03;;;;;;;16.51;54.21;94816.09;5131302;27;20196;-44
2023/05/08 01:05:11;;;;;;;7.50;4.40;;;;;;;16.51;54.33;94818.66;5131047;27;20246;-45
2023/05/08 01:07:38;;;;;;;5.07;4.53;;;;;;;16.50;54.24;94824.81;5131347;27;20192;-44
2023/05/08 01:10:06;;;;;;;4.83;4.43;;;;;;;16.48;54.44;94821.56;5130807;27;20245;-45
2023/05/08 01:12:42;;;;;;;4.60;4.20;;;;;;;16.45;54.55;94814.16;5131172;27;20196;-45
2023/05/08 01:15:18;;;;;;;4.63;4.17;;;;;;;16.44;54.46;94822.88;5130952;27;20184;-46
2023/05/08 01:17:56;;;;;;;6.47;4.53;;;;;;;16.43;54.56;94829.84;5131367;27;20188;-44
2023/05/08 01:20:37;;;;;;;5.00;4.37;;;;;;;16.40;54.63;94830.16;5130618;27;20192;-46
2023/05/08 01:23:32;;;;;;;5.43;4.67;;;;;;;16.39;54.65;94827.75;5130905;27;20262;-45
2023/05/08 01:26:31;;;;;;;5.33;4.83;;;;;;;16.36;54.90;94828.09;5131217;27;20180;-45
2023/05/08 01:29:37;;;;;;;5.77;4.03;;;;;;;16.29;54.82;94820.25;5130495;27;20945;-46
2023/05/08 01:32:12;;;;;;;10.50;4.43;;;;;;;16.30;54.93;94822.66;5046853;28;20231;-44
2023/05/08 01:34:44;;;;;;;6.70;4.50;;;;;;;16.29;55.12;94821.03;5047568;28;20190;-45
2023/05/08 01:37:17;;;;;;;5.23;4.73;;;;;;;16.27;55.14;94819.59;5046553;28;20198;-45
2023/05/08 01:39:47;;;;;;;7.13;4.40;;;;;;;16.26;55.12;94815.41;5047164;28;20282;-43
2023/05/08 01:42:20;;;;;;;6.33;4.10;;;;;;;16.21;55.17;94805.59;5047080;28;20198;-47
2023/05/08 01:44:53;;;;;;;4.60;4.13;;;;;;;16.19;55.03;94812.72;5047565;28;20198;-44
2023/05/08 01:47:25;;;;;;;5.70;4.40;;;;;;;16.21;55.17;94807.38;5046928;28;20195;-45
2023/05/08 01:50:01;;;;;;;5.63;4.13;;;;;;;16.19;54.95;94817.88;5047338;28;20278;-46
2023/05/08 01:52:33;;;;;;;6.13;4.00;;;;;;;16.16;55.47;94802.72;5046999;28;20281;-45
2023/05/08 01:55:05;;;;;;;4.90;4.50;;;;;;;16.14;55.50;94807.25;5030621;28;20248;-46
2023/05/08 01:57:37;;;;;;;4.67;4.13;;;;;;;16.11;55.55;94802.44;5046930;28;20195;-46
2023/05/08 02:00:06;;;;;;;5.70;4.03;;;;;;;15.99;55.57;94793.47;5047224;28;20202;-46
2023/05/08 02:02:35;;;;;;;7.77;4.67;;;;;;;16.11;55.55;94815.34;5046854;28;20222;-46
2023/05/08 02:05:04;;;;;;;6.13;4.10;;;;;;;16.04;55.48;94804.06;5047107;28;20219;-46
2023/05/08 02:07:34;;;;;;;4.60;4.10;;;;;;;16.08;55.58;94807.91;5046791;28;20286;-45
2023/05/08 02:10:04;;;;;;;4.67;4.17;;;;;;;16.07;55.81;94808.09;5121285;27;20191;-46
2023/05/08 02:12:32;;;;;;;4.37;3.93;;;;;;;16.05;55.69;94808.25;5130728;27;20319;-52
2023/05/08 02:15:02;;;;;;;5.27;4.40;;;;;;;16.04;55.98;94810.03;5130606;28;20624;-45
2023/05/08 02:17:31;;;;;;;6.57;4.30;;;;;;;16.04;55.94;94809.22;5129966;28;20361;-45
2023/05/08 02:20:02;;;;;;;4.60;3.83;;;;;;;16.00;55.89;94807.97;5130027;28;20563;-45
2023/05/08 02:22:31;;;;;;;5.23;4.63;;;;;;;15.98;56.04;94805.56;5130066;28;20202;-45
2023/05/08 02:24:59;;;;;;;6.40;4.10;;;;;;;15.98;55.92;94808.13;5128934;28;20796;-45
2023/05/08 02:27:29;;;;;;;4.73;4.20;;;;;;;15.97;56.04;94811.66;5130088;28;20228;-44
2023/05/08 02:29:57;;;;;;;4.80;4.30;;;;;;;15.98;56.10;94815.88;5130469;28;20245;-44
2023/05/08 02:32:26;;;;;;;4.83;4.43;;;;;;;15.94;56.11;94808.63;5129587;28;20770;-46
2023/05/08 02:34:55;;;;;;;5.00;3.70;;;;;;;15.92;56.11;94808.78;5130390;28;20188;-45
2023/05/08 02:37:25;;;;;;;5.97;4.40;;;;;;;15.90;56.21;94805.59;5129808;28;20580;-47
2023/05/08 02:39:56;;;;;;;4.67;4.27;;;;;;;15.94;56.24;94813.81;5130407;28;20191;-47
2023/05/08 02:42:23;;;;;;;5.10;4.40;;;;;;;15.91;56.26;94820.09;5130102;27;20775;-46
2023/05/08 02:44:50;;;;;;;4.37;3.80;;;;;;;15.91;56.28;94819.28;5129987;27;20196;-45
2023/05/08 02:47:23;;;;;;;4.77;4.37;;;;;;;15.91;56.47;94819.28;5128539;27;20604;-43
2023/05/08 02:49:54;;;;;;;6.43;4.30;;;;;;;15.78;56.45;94799.97;5134306;27;20185;-47
2023/05/08 02:52:28;;;;;;;6.73;4.10;;;;;;;15.90;56.33;94821.06;5133787;27;20594;-45
2023/05/08 02:55:00;;;;;;;6.27;4.63;;;;;;;15.83;56.54;94812.38;5134380;27;20196;-47
2023/05/08 02:57:37;;;;;;;6.43;4.20;;;;;;;15.67;56.44;94786.63;5134424;27;20249;-46
2023/05/08 03:00:08;;;;;;;5.10;3.97;;;;;;;15.88;56.66;94819.59;5133782;27;20664;-45
2023/05/08 03:02:39;;;;;;;6.20;4.30;;;;;;;15.85;56.52;94819.97;5133791;27;20265;-45
2023/05/08 03:05:14;;;;;;;5.20;4.33;;;;;;;15.89;56.60;94821.22;5133827;27;20196;-44
2023/05/08 03:07:43;;;;;;;5.00;4.43;;;;;;;15.89;56.51;94821.22;5133664;27;20640;-42
2023/05/08 03:10:14;;;;;;;4.60;4.20;;;;;;;15.88;56.55;94820.41;5133534;27;20185;-46
2023/05/08 03:12:44;;;;;;;6.07;4.90;;;;;;;15.90;56.59;94823.63;5133431;27;20692;-45
2023/05/08 03:15:18;;;;;;;5.33;4.27;;;;;;;15.92;56.60;94820.88;5133592;27;20188;-42
2023/05/08 03:17:47;;;;;;;4.60;4.20;;;;;;;15.94;56.61;94826.69;5133266;27;20220;-43
2023/05/08 03:20:17;;;;;;;4.60;3.87;;;;;;;15.95;56.66;94829.09;5133571;27;20641;-42
2023/05/08 03:22:47;;;;;;;5.37;4.20;;;;;;;15.98;56.49;94833.94;5132929;27;20216;-42
2023/05/08 03:25:19;;;;;;;4.53;4.13;;;;;;;16.00;56.35;94823.44;5133301;27;20255;-43
2023/05/08 03:27:46;;;;;;;4.93;4.40;;;;;;;16.03;56.40;94826.50;5133246;27;20224;-43
2023/05/08 03:30:16;;;;;;;5.23;4.70;;;;;;;16.07;56.40;94826.16;5133524;27;20181;-46
2023/05/08 03:32:45;;;;;;;5.47;4.23;;;;;;;16.13;56.42;94833.22;5133114;27;20359;-43
2023/05/08 03:35:14;;;;;;;4.93;4.47;;;;;;;16.14;56.32;94832.25;5131707;27;20608;-44
2023/05/08 03:37:42;;;;;;;5.00;4.50;;;;;;;16.19;56.16;94828.19;5132720;27;20199;-46
2023/05/08 03:40:12;;;;;;;6.10;4.57;;;;;;;16.27;56.20;94840.25;5133182;27;20229;-44
2023/05/08 03:42:41;;;;;;;5.43;3.90;;;;;;;16.33;56.35;94838.78;5133538;27;20257;-44
2023/05/08 03:45:10;;;;;;;5.60;4.20;;;;;;;16.34;56.10;94824.91;5132925;27;20245;-44
2023/05/08 03:47:38;;;;;;;4.40;4.00;;;;;;;16.43;56.00;94829.84;5132997;27;20189;-45
2023/05/08 03:50:06;;;;;;;4.57;4.13;;;;;;;16.52;55.84;94841.72;5132953;27;20188;-45
2023/05/08 03:52:34;;;;;;;4.83;3.83;;;;;;;16.61;55.82;94841.66;5132390;27;20255;-46
2023/05/08 03:55:01;;;;;;;4.97;4.33;;;;;;;16.67;55.84;94836.63;5133069;27;20315;-45
2023/05/08 03:57:38;;;;;;;5.07;4.60;;;;;;;16.75;55.56;94834.03;5135007;27;20192;-47
2023/05/08 04:00:13;;;;;;;6.80;4.30;;;;;;;16.82;55.54;94834.13;5135682;27;20649;-46
2023/05/08 04:02:47;;;;;;;4.23;3.83;;;;;;;16.94;55.61;94845.69;5135044;27;20205;-45
2023/05/08 04:05:21;;;;;;;4.70;4.03;;;;;;;16.94;55.19;94830.19;5133091;27;20575;-47
2023/05/08 04:07:53;;;;;;;4.90;4.43;;;;;;;17.09;55.22;94837.97;5132784;27;20251;-44
2023/05/08 04:10:29;;;;;;;4.90;4.50;;;;;;;17.14;55.11;94840.03;5132423;27;20743;-46
2023/05/08 04:13:04;;;;;;;8.00;4.70;;;;;;;17.24;54.96;94830.25;5132334;27;20298;-44
2023/05/08 04:15:34;;;;;;;4.07;3.67;;;;;;;17.37;54.77;94848.56;5132853;27;20290;-45
2023/05/08 04:18:06;;;;;;;5.57;3.97;;;;;;;17.37;54.74;94829.66;5132237;27;20192;-44
2023/05/08 04:20:35;;;;;;;5.40;4.23;;;;;;;17.53;54.46;94840.66;5130862;27;20218;-42
2023/05/08 04:23:04;;;;;;;6.30;4.80;;;;;;;17.68;54.49;94851.00;5132005;27;20241;-45
2023/05/08 04:25:33;;;;;;;4.60;4.20;;;;;;;17.77;54.22;94855.13;5131966;27;20293;-47
2023/05/08 04:28:02;;;;;;;7.43;4.27;;;;;;;17.89;54.17;94860.69;5132156;27;20192;-47
2023/05/08 04:30:29;;;;;;;6.47;4.67;;;;;;;17.98;53.90;94861.41;5132237;27;20252;-47
2023/05/08 04:32:58;;;;;;;4.60;4.20;;;;;;;18.08;53.99;94854.16;5131449;27;20227;-45
2023/05/08 04:35:25;;;;;;;4.67;4.27;;;;;;;18.20;53.84;94855.31;5131748;27;20630;-46
2023/05/08 04:37:52;;;;;;;5.93;4.30;;;;;;;18.32;53.60;94860.84;5131705;27;20214;-45
2023/05/08 04:40:19;;;;;;;4.33;3.93;;;;;;;18.45;53.29;94857.59;5131589;27;20202;-46
2023/05/08 04:42:46;;;;;;;7.43;4.30;;;;;;;18.58;53.22;94855.16;5131628;27;20199;-47
2023/05/08 04:45:15;;;;;;;5.67;4.10;;;;;;;18.72;52.82;94843.97;5131510;27;20223;-47
2023/05/08 04:47:42;;;;;;;3.93;3.63;;;;;;;18.92;52.52;94851.94;5131479;27;20199;-46
2023/05/08 04:50:10;;;;;;;4.57;4.10;;;;;;;19.16;52.20;94848.16;5132278;27;20917;-46
2023/05/08 04:52:37;;;;;;;3.93;3.63;;;;;;;19.43;51.81;94841.41;5133023;27;20338;-45
2023/05/08 04:55:05;;;;;;;4.03;3.63;;;;;;;19.83;51.38;94843.50;5133475;27;20185;-45
2023/05/08 04:57:31;;;;;;;4.53;3.67;;;;;;;20.25;51.22;94840.72;5132056;27;20668;-45
2023/05/08 04:59:59;;;;;;;4.30;3.90;;;;;;;20.68;50.90;94839.66;5131989;27;20687;-45
2023/05/08 05:02:27;;;;;;;3.90;3.60;;;;;;;21.12;50.41;94833.16;5131800;27;20271;-46
2023/05/08 05:04:57;;;;;;;4.78;3.50;;;;;;;21.61;49.81;94842.38;5131587;27;20200;-46
2023/05/08 05:07:24;;;;;;;5.30;3.20;;;;;;;22.08;49.24;94838.66;5131937;27;20184;-46
2023/05/08 05:09:51;;;;;;;3.95;3.55;;;;;;;22.54;48.72;94837.72;5133032;27;20676;-44
2023/05/08 05:12:17;;;;;;;6.68;3.83;;;;;;;23.01;48.06;94833.88;5132049;27;20212;-48
2023/05/08 05:14:44;;;;;;;3.83;3.50;;;;;;;23.51;47.47;94833.84;5131772;27;20554;-47
2023/05/08 05:17:11;;;;;;;3.30;3.00;;;;;;;24.03;46.91;94834.38;5131091;27;20278;-46
2023/05/08 05:19:39;;;;;;;4.47;3.20;;;;;;;24.60;46.11;94842.00;5131130;27;20180;-48
2023/05/08 05:22:07;;;;;;;4.72;3.15;;;;;;;25.12;45.35;94828.41;5132403;27;20279;-46
2023/05/08 05:24:34;;;;;;;4.03;3.20;;;;;;;25.72;45.13;94831.66;5130827;27;20374;-45
2023/05/08 05:27:01;;;;;;;3.35;2.70;;;;;;;26.30;44.40;94830.03;5131161;27;20196;-45
2023/05/08 05:29:29;;;;;;;4.38;3.40;;;;;;;26.96;43.73;94836.53;5130845;27;20197;-46
2023/05/08 05:31:56;;;;;;;3.28;2.75;;;;;;;27.12;43.00;94758.84;5130844;27;20311;-45
2023/05/08 05:34:23;;;;;;;2.70;2.45;;;;;;;28.27;42.14;94832.72;5130960;27;20192;-47
2023/05/08 05:36:51;;;;;;;3.78;2.60;;;;;;;28.91;41.43;94835.56;5131158;27;20184;-46
2023/05/08 05:39:18;;;;;;;4.80;2.63;;;;;;;29.57;40.96;94840.66;5131069;27;20192;-47
2023/05/08 05:41:45;;;;;;;4.38;2.70;;;;;;;30.17;40.32;94836.03;5130925;27;20180;-47
2023/05/08 05:44:12;;;;;;;3.28;2.80;;;;;;;30.80;39.78;94844.75;5130611;27;20254;-45
2023/05/08 05:46:39;;;;;;;3.13;2.83;;;;;;;31.08;38.77;94790.59;5130466;27;20244;-46
2023/05/08 05:49:05;;;;;;;3.03;2.70;;;;;;;32.12;38.42;94848.47;5130740;27;20192;-46
2023/05/08 05:51:32;;;;;;;3.25;2.50;;;;;;;32.80;37.49;94842.66;5130201;27;20219;-46
2023/05/08 05:54:00;;;;;;;2.30;2.15;;;;;;;33.49;36.60;94843.56;5130556;27;20642;-45
2023/05/08 05:56:27;;;;;;;3.20;2.53;;;;;;;34.17;36.27;94840.81;5130161;27;20184;-47
2023/05/08 05:58:54;;;;;;;2.85;2.42;;;;;;;34.83;35.46;94836.56;5130696;27;20328;-46
2023/05/08 06:01:23;;;;;;;3.25;2.40;;;;;;;35.36;34.83;94833.66;5130271;27;20196;-45
2023/05/08 06:03:50;;;;;;;2.35;2.15;;;;;;;35.80;34.46;94838.56;5129166;27;20211;-48
2023/05/08 06:06:17;;;;;;;3.67;1.92;;;;;;;36.09;34.05;94830.31;5130116;27;20287;-47
2023/05/08 06:08:43;;;;;;;2.30;2.20;;;;;;;36.28;33.60;94824.91;5129062;27;20203;-45
2023/05/08 06:11:12;;;;;;;4.47;2.60;;;;;;;36.49;33.22;94833.31;5130474;27;20195;-46
2023/05/08 06:13:42;;;;;;;3.30;3.00;;;;;;;36.66;32.84;94830.03;5130249;27;20745;-46
2023/05/08 06:16:09;;;;;;;3.03;2.60;;;;;;;36.84;32.47;94823.78;5129251;28;20232;-46
2023/05/08 06:18:36;;;;;;;3.40;2.47;;;;;;;37.02;32.53;94827.41;5129908;28;20199;-48
2023/05/08 06:21:04;;;;;;;4.35;2.70;;;;;;;37.26;32.27;94834.31;5130141;28;20195;-47
2023/05/08 06:23:31;;;;;;;5.00;2.78;;;;;;;37.42;31.96;94824.88;5133770;27;20215;-48
2023/05/08 06:25:58;;;;;;;3.00;2.70;;;;;;;37.48;31.90;94823.69;5134470;27;20187;-45
2023/05/08 06:28:28;;;;;;;3.88;2.70;;;;;;;37.53;31.76;94830.78;5133943;27;20209;-46
2023/05/08 06:30:55;;;;;;;3.22;2.33;;;;;;;37.47;31.75;94830.09;5134480;27;20549;-47
2023/05/08 06:33:21;;;;;;;2.70;2.45;;;;;;;37.19;31.73;94807.28;5134342;27;20235;-45
2023/05/08 06:35:50;;;;;;;4.13;2.65;;;;;;;37.14;31.88;94841.00;5133386;27;20188;-45
2023/05/08 06:38:17;;;;;;;4.22;2.83;;;;;;;36.95;31.95;94832.34;5134255;27;20181;-46
2023/05/08 06:40:45;;;;;;;2.63;2.40;;;;;;;36.80;31.86;94838.00;5134731;27;20606;-45
2023/05/08 06:43:13;;;;;;;4.45;2.97;;;;;;;36.72;31.76;94836.81;5134107;27;20684;-44
2023/05/08 06:45:43;;;;;;;2.47;2.20;;;;;;;36.79;32.08;94831.06;5134281;27;20191;-45
2023/05/08 06:48:12;;;;;;;3.47;2.55;;;;;;;37.05;31.63;94837.47;5132296;27;20641;-46
2023/05/08 06:50:42;;;;;;;2.90;2.70;;;;;;;37.14;31.28;94810.88;5133871;27;20598;-46
2023/05/08 06:53:08;;;;;;;4.13;2.88;;;;;;;37.46;30.99;94833.84;5133532;27;20231;-47
2023/05/08 06:55:37;;;;;;;3.00;2.60;;;;;;;37.49;31.22;94835.13;5134061;27;20264;-46
2023/05/08 06:58:04;;;;;;;3.22;2.92;;;;;;;37.48;31.11;94833.53;5134268;27;20180;-47
2023/05/08 07:00:31;;;;;;;4.15;2.70;;;;;;;37.40;31.24;94840.41;5134388;27;20576;-46
2023/05/08 07:02:59;;;;;;;2.60;2.40;;;;;;;37.28;31.40;94848.94;5135459;27;20224;-46
2023/05/08 07:05:26;;;;;;;6.75;2.80;;;;;;;37.11;31.52;94846.13;5135815;27;20253;-46
2023/05/08 07:07:53;;;;;;;4.15;2.80;;;;;;;36.94;31.42;94844.09;5133566;27;20185;-46
2023/05/08 07:10:21;;;;;;;2.97;2.70;;;;;;;36.76;31.64;94848.47;5133634;27;20263;-45
2023/05/08 07:12:48;;;;;;;4.05;2.92;;;;;;;36.53;31.81;94846.81;5133517;27;20280;-45
2023/05/08 07:15:15;;;;;;;8.50;3.05;;;;;;;36.30;31.85;94846.69;5133717;27;20180;-46
2023/05/08 07:17:43;;;;;;;4.40;2.83;;;;;;;36.16;31.72;94843.25;5133670;27;20256;-47
2023/05/08 07:20:11;;;;;;;3.90;2.80;;;;;;;35.91;31.88;94837.28;5133357;27;20187;-44
2023/05/08 07:22:38;;;;;;;12.65;3.50;;;;;;;35.65;32.11;94830.84;5133410;27;20188;-47
2023/05/08 07:25:06;;;;;;;4.18;3.05;;;;;;;35.41;32.06;94831.75;5133313;27;20232;-47
2023/05/08 07:27:33;;;;;;;6.90;3.13;;;;;;;35.22;31.90;94846.94;5133361;27;20196;-47
2023/05/08 07:30:02;;;;;;;4.15;2.80;;;;;;;35.03;32.34;94835.53;5133196;27;20199;-45
2023/05/08 07:32:30;;;;;;;6.55;3.20;;;;;;;34.90;32.31;94842.31;5133396;27;20224;-47
2023/05/08 07:34:57;;;;;;;5.82;3.50;;;;;;;34.82;32.23;94840.31;5132259;27;20244;-49
2023/05/08 07:37:25;;;;;;;5.55;3.10;;;;;;;34.80;32.06;94842.44;5137227;27;20199;-46
2023/05/08 07:39:52;;;;;;;3.75;2.88;;;;;;;34.73;32.29;94832.19;5138297;27;20212;-47
2023/05/08 07:42:20;;;;;;;3.55;3.05;;;;;;;34.76;32.24;94836.13;5133922;27;20188;-45
2023/05/08 07:44:46;;;;;;;3.67;2.97;;;;;;;34.77;32.26;94843.03;5133202;27;20287;-45
2023/05/08 07:47:13;;;;;;;3.55;3.10;;;;;;;34.70;32.21;94849.47;5132726;27;20640;-45
2023/05/08 07:49:40;;;;;;;3.40;2.70;;;;;;;34.63;32.01;94843.75;5132887;27;20245;-46
2023/05/08 07:52:07;;;;;;;3.08;2.72;;;;;;;34.59;32.00;94841.94;5132719;27;20264;-48
2023/05/08 07:54:35;;;;;;;4.63;2.90;;;;;;;34.59;32.34;94844.59;5133726;27;20204;-46
2023/05/08 07:57:02;;;;;;;5.68;3.25;;;;;;;34.73;32.21;94847.34;5133568;27;20191;-46
2023/05/08 07:59:29;;;;;;;5.25;2.92;;;;;;;34.83;32.23;94850.63;5132950;27;20177;-46
2023/05/08 08:01:55;;;;;;;3.65;3.28;;;;;;;34.98;32.06;94846.25;5132543;27;20192;-47
2023/05/08 08:04:23;;;;;;;5.22;3.13;;;;;;;35.11;31.92;94850.84;5133199;27;20573;-47
2023/05/08 08:06:50;;;;;;;3.60;3.00;;;;;;;35.35;31.75;94850.72;5132136;27;20214;-44
2023/05/08 08:09:17;;;;;;;2.88;2.67;;;;;;;35.59;31.64;94846.09;5132542;27;20617;-46
2023/05/08 08:11:45;;;;;;;5.20;2.97;;;;;;;35.91;31.53;94857.78;5132349;27;20180;-46
2023/05/08 08:14:12;;;;;;;3.30;3.00;;;;;;;36.14;31.37;94858.72;5132810;27;20212;-47
2023/05/08 08:16:38;;;;;;;4.20;3.03;;;;;;;36.31;31.21;94856.25;5132222;27;20195;-47
2023/05/08 08:19:05;;;;;;;3.53;2.50;;;;;;;36.57;31.17;94853.13;5132187;27;20192;-46
2023/05/08 08:21:32;;;;;;;4.22;3.05;;;;;;;36.80;31.04;94852.13;5132202;27;20596;-44
2023/05/08 08:23:59;;;;;;;4.03;3.15;;;;;;;36.87;30.68;94838.34;5131988;27;20296;-42
2023/05/08 08:26:26;;;;;;;3.13;2.83;;;;;;;37.00;30.68;94850.88;5132233;27;20193;-43
2023/05/08 08:28:54;;;;;;;4.25;2.75;;;;;;;36.96;30.55;94843.78;5131824;27;20276;-46
2023/05/08 08:31:21;;;;;;;3.33;2.70;;;;;;;36.89;30.77;94841.53;5131783;27;20176;-47
2023/05/08 08:33:48;;;;;;;8.18;2.92;;;;;;;36.82;30.78;94836.59;5131870;27;20224;-46
2023/05/08 08:36:16;;;;;;;8.25;3.17;;;;;;;36.70;31.02;94819.53;5131967;27;20188;-45
2023/05/08 08:38:42;;;;;;;5.07;2.97;;;;;;;36.63;30.77;94827.97;5131734;27;20192;-45
2023/05/08 08:41:09;;;;;;;3.20;2.65;;;;;;;36.51;30.89;94833.00;5131721;27;20192;-46
2023/05/08 08:43:42;;;;;;;3.53;2.80;;;;;;;36.33;31.25;94824.03;5131634;27;20264;-45
2023/05/08 08:46:13;;;;;;;5.10;3.30;;;;;;;36.12;31.31;94816.41;5131863;27;20263;-44
2023/05/08 08:48:44;;;;;;;4.45;2.83;;;;;;;35.36;31.33;94728.06;5131954;27;20614;-44
2023/05/08 08:51:18;;;;;;;4.70;3.28;;;;;;;35.62;31.59;94808.28;5131783;27;20188;-45
2023/05/08 08:53:50;;;;;;;11.02;3.00;;;;;;;35.58;31.55;94817.09;5131207;27;20227;-45
2023/05/08 08:56:17;;;;;;;3.63;2.92;;;;;;;35.47;31.53;94811.19;5131680;27;20260;-47
2023/05/08 08:58:49;;;;;;;7.20;3.03;;;;;;;35.28;31.65;94805.06;5131046;27;20185;-46
2023/05/08 09:01:19;;;;;;;4.45;3.10;;;;;;;35.05;32.00;94798.78;5131754;27;20267;-47
2023/05/08 09:03:46;;;;;;;5.82;2.97;;;;;;;34.78;32.10;94792.25;5131562;27;20184;-46
2023/05/08 09:06:14;;;;;;;3.13;2.67;;;;;;;33.69;32.13;94670.94;5135895;27;20196;-46
2023/05/08 09:08:41;;;;;;;5.40;3.45;;;;;;;34.12;32.39;94779.81;5130908;27;20196;-46
2023/05/08 09:11:08;;;;;;;7.43;3.40;;;;;;;33.77;32.80;94786.28;5131191;27;20191;-45
2023/05/08 09:13:34;;;;;;;4.30;3.13;;;;;;;33.40;32.86;94775.19;5131349;27;20330;-45
2023/05/08 09:16:02;;;;;;;3.47;2.75;;;;;;;33.08;33.26;94774.94;5131227;27;20284;-46
2023/05/08 09:18:30;;;;;;;5.32;3.05;;;;;;;32.76;33.46;94770.88;5131193;27;20195;-45
2023/05/08 09:20:59;;;;;;;8.38;3.17;;;;;;;32.46;33.48;94756.75;5130850;27;20248;-46
2023/05/08 09:23:25;;;;;;;5.32;3.15;;;;;;;31.84;33.92;94693.78;5130756;27;20283;-45
2023/05/08 09:25:52;;;;;;;5.93;3.60;;;;;;;31.97;33.97;94744.25;5131073;27;20188;-45
2023/05/08 09:28:21;;;;;;;3.95;2.95;;;;;;;31.78;34.19;94742.44;5131029;27;20679;-44
2023/05/08 09:30:50;;;;;;;3.40;2.78;;;;;;;31.63;34.46;94752.00;5130648;27;20207;-48
2023/05/08 09:33:18;;;;;;;7.40;3.55;;;;;;;31.51;34.08;94751.50;5131109;27;20223;-47
2023/05/08 09:35:47;;;;;;;7.13;3.35;;;;;;;31.39;34.52;94743.88;5130707;27;20187;-47
2023/05/08 09:38:34;;;;;;;6.97;3.33;;;;;;;30.62;34.47;94655.91;5131180;27;20287;-45
2023/05/08 09:41:12;;;;;;;4.10;3.20;;;;;;;31.15;34.56;94764.72;5130574;27;20608;-48
2023/05/08 09:43:39;;;;;;;4.18;2.75;;;;;;;31.04;34.83;94781.63;5131106;27;20203;-44
2023/05/08 09:46:23;;;;;;;5.70;3.30;;;;;;;30.84;34.54;94761.28;5130803;27;20188;-44
2023/05/08 09:48:50;;;;;;;3.28;2.97;;;;;;;30.88;34.61;94770.28;5130664;27;20188;-47
2023/05/08 09:51:21;;;;;;;6.18;3.83;;;;;;;30.90;34.63;94773.44;5130867;27;20188;-48
2023/05/08 09:53:51;;;;;;;7.18;3.80;;;;;;;30.93;34.77;94772.91;5130488;27;20708;-45
2023/05/08 09:56:29;;;;;;;4.75;2.92;;;;;;;30.69;35.00;94722.41;5130397;27;20736;-47
2023/05/08 09:58:56;;;;;;;7.75;3.75;;;;;;;31.09;34.37;94775.56;5130300;27;20199;-47
2023/05/08 10:01:32;;;;;;;3.50;3.10;;;;;;;31.15;34.37;94772.66;5131068;27;20195;-46
2023/05/08 10:03:59;;;;;;;3.50;3.17;;;;;;;31.21;34.57;94765.50;5130474;27;20672;-45
2023/05/08 10:06:28;;;;;;;6.13;3.70;;;;;;;31.26;34.80;94765.50;5130337;27;20185;-44
2023/05/08 10:09:09;;;;;;;3.10;2.80;;;;;;;31.20;34.45;94756.78;5130280;27;20195;-45
2023/05/08 10:11:36;;;;;;;7.28;3.40;;;;;;;31.28;34.55;94766.06;5130226;27;20227;-44
2023/05/08 10:14:03;;;;;;;4.82;3.03;;;;;;;31.18;34.48;94744.91;5130212;27;20223;-44
2023/05/08 10:16:30;;;;;;;4.32;2.97;;;;;;;31.31;34.50;94762.13;5130240;27;20688;-47
2023/05/08 10:19:04;;;;;;;4.45;3.17;;;;;;;31.36;34.69;94754.97;5130265;27;20188;-46
2023/05/08 10:21:36;;;;;;;4.78;3.05;;;;;;;31.39;34.68;94753.63;5130169;27;20192;-45
2023/05/08 10:24:06;;;;;;;3.13;2.70;;;;;;;31.40;34.74;94748.09;5130023;28;20221;-47
2023/05/08 10:26:37;;;;;;;5.20;3.05;;;;;;;31.33;34.69;94739.63;5130260;28;20191;-46
2023/05/08 10:29:07;;;;;;;3.67;3.15;;;;;;;31.33;34.48;94731.69;5130365;28;20531;-49
2023/05/08 10:31:39;;;;;;;5.20;3.55;;;;;;;31.45;34.48;94747.28;5130456;28;20218;-45
2023/05/08 10:34:07;;;;;;;7.13;3.00;;;;;;;31.51;34.62;94742.78;5130089;28;20220;-46
2023/05/08 10:36:37;;;;;;;6.07;2.85;;;;;;;31.57;34.39;94744.38;5130049;28;20668;-47
2023/05/08 10:39:04;;;;;;;3.92;3.38;;;;;;;31.63;34.46;94738.00;5130008;28;20196;-46
2023/05/08 10:41:32;;;;;;;3.30;3.00;;;;;;;31.69;34.39;94743.00;5130126;28;20180;-46
2023/05/08 10:44:00;;;;;;;4.25;3.47;;;;;;;31.64;34.32;94716.56;5129875;28;20713;-43
2023/05/08 10:46:37;;;;;;;4.25;3.15;;;;;;;31.76;34.20;94724.19;5130192;28;20199;-46
2023/05/08 10:49:15;;;;;;;3.92;2.90;;;;;;;31.81;34.23;94726.81;5129660;28;20195;-47
2023/05/08 10:51:53;;;;;;;7.97;2.85;;;;;;;31.86;34.33;94726.03;5130042;27;20183;-46
2023/05/08 10:54:30;;;;;;;3.60;2.97;;;;;;;31.84;34.48;94721.03;5130030;28;20220;-45
2023/05/08 10:57:08;;;;;;;3.72;3.33;;;;;;;31.90;34.50;94724.44;5129860;28;20649;-47
2023/05/08 10:59:36;;;;;;;3.05;2.72;;;;;;;31.92;34.01;94717.03;5129740;28;20252;-48
2023/05/08 11:02:07;;;;;;;6.32;3.40;;;;;;;31.92;34.01;94717.03;5130123;28;20554;-46
2023/05/08 11:04:35;;;;;;;2.97;2.78;;;;;;;31.91;34.26;94710.97;5129402;28;20607;-46
2023/05/08 11:07:03;;;;;;;4.70;2.97;;;;;;;31.42;34.07;94642.88;5129909;28;20271;-48
2023/05/08 11:09:46;;;;;;;4.35;3.17;;;;;;;31.80;34.22;94709.38;5131508;27;20181;-47
2023/05/08 11:12:25;;;;;;;6.90;3.17;;;;;;;31.61;34.44;94680.09;5134388;27;20196;-46
2023/05/08 11:15:00;;;;;;;3.83;3.20;;;;;;;31.69;34.45;94697.25;5133922;27;20223;-45
2023/05/08 11:17:27;;;;;;;4.53;3.25;;;;;;;31.65;34.44;94686.44;5133685;27;20176;-44
2023/05/08 11:19:59;;;;;;;3.45;3.15;;;;;;;31.29;34.62;94632.06;5132651;27;20184;-48
2023/05/08 11:22:29;;;;;;;3.90;3.53;;;;;;;31.39;34.63;94661.94;5133537;27;20279;-45
2023/05/08 11:25:01;;;;;;;3.35;3.05;;;;;;;31.54;34.75;94682.22;5133177;27;20228;-47
2023/05/08 11:28:02;;;;;;;4.13;3.22;;;;;;;31.46;34.36;94673.00;5133099;27;20237;-48
2023/05/08 11:30:37;;;;;;;4.95;3.45;;;;;;;31.40;34.82;94673.28;5133314;27;20304;-47
2023/05/08 11:33:30;;;;;;;6.57;3.55;;;;;;;31.33;35.02;94667.47;5133050;27;20222;-47
2023/05/08 11:35:59;;;;;;;3.83;2.88;;;;;;;31.11;34.90;94647.41;5133187;27;20676;-48
2023/05/08 11:38:34;;;;;;;3.88;3.15;;;;;;;30.29;34.77;94535.00;5132143;27;20671;-47
2023/05/08 11:41:06;;;;;;;6.25;3.30;;;;;;;31.03;35.16;94660.38;5133256;27;20576;-46
2023/05/08 11:44:08;;;;;;;3.85;3.28;;;;;;;30.95;35.24;94659.06;5133346;27;20522;-46
2023/05/08 11:46:41;;;;;;;4.03;3.05;;;;;;;30.85;35.12;94654.59;5135340;27;20263;-49